Time;durP1;ratioP1;P1;durP2;ratioP2;P2;SDS_P1;SDS_P2;PMS_P1;PMS_P2;Temp;Humidity;BMP_temperature;BMP_pressure;BME280_temperature;BME280_humidity;BME280_pressure;Samples;Min_cycle;Max_cycle;Signal;HPM_P1;HPM_P2
2021/03/11 00:00:07;;;;;;;17.50;11.07;;;6.10;99.90;;;;;;4947957;29;20392;-81
2021/03/11 00:02:33;;;;;;;18.10;10.70;;;6.20;99.90;;;;;;4946880;29;20164;-80
2021/03/11 00:04:58;;;;;;;13.87;9.37;;;6.00;99.90;;;;;;4947756;29;20447;-80
2021/03/11 00:07:24;;;;;;;15.27;9.97;;;6.10;99.90;;;;;;4948784;29;20403;-80
2021/03/11 00:09:50;;;;;;;15.63;9.07;;;6.10;99.90;;;;;;4948510;29;20195;-80
2021/03/11 00:12:15;;;;;;;13.60;8.73;;;6.10;99.90;;;;;;4947912;29;20168;-80
2021/03/11 00:14:41;;;;;;;20.27;10.43;;;6.10;99.90;;;;;;4947758;29;20259;-80
2021/03/11 00:17:07;;;;;;;14.27;9.90;;;6.00;99.90;;;;;;4947562;29;20227;-80
2021/03/11 00:19:34;;;;;;;16.40;11.20;;;6.10;99.90;;;;;;4947779;29;20407;-80
2021/03/11 00:22:00;;;;;;;17.10;11.10;;;6.00;99.90;;;;;;4946556;29;20212;-80
2021/03/11 00:24:26;;;;;;;19.10;11.10;;;6.00;99.90;;;;;;4946975;29;20407;-80
2021/03/11 00:26:52;;;;;;;17.10;10.03;;;6.00;99.90;;;;;;4946976;29;20472;-81
2021/03/11 00:29:18;;;;;;;13.93;8.50;;;5.90;99.90;;;;;;4948213;29;20440;-80
2021/03/11 00:31:44;;;;;;;15.77;9.70;;;5.90;99.90;;;;;;4948450;29;20509;-80
2021/03/11 00:34:13;;;;;;;19.00;10.60;;;5.90;99.90;;;;;;4946662;29;20467;-81
2021/03/11 00:36:39;;;;;;;15.67;8.90;;;5.80;99.90;;;;;;4930406;29;20456;-80
2021/03/11 00:39:06;;;;;;;17.90;10.60;;;5.90;99.90;;;;;;4945517;29;20594;-81
2021/03/11 00:41:32;;;;;;;22.70;11.87;;;5.90;99.90;;;;;;4945472;29;20163;-80
2021/03/11 00:43:58;;;;;;;14.83;9.67;;;5.80;99.90;;;;;;4945432;29;20850;-79
2021/03/11 00:46:26;;;;;;;18.27;10.70;;;5.80;99.90;;;;;;4930203;29;20164;-80
2021/03/11 00:48:52;;;;;;;16.73;10.60;;;5.80;99.90;;;;;;4946332;29;20815;-80
2021/03/11 00:51:18;;;;;;;19.97;10.90;;;5.80;99.90;;;;;;4946932;29;20178;-80
2021/03/11 00:53:43;;;;;;;18.70;12.73;;;5.90;99.90;;;;;;4946483;29;20212;-80
2021/03/11 00:56:09;;;;;;;22.10;9.93;;;5.90;99.90;;;;;;4944709;29;20320;-80
2021/03/11 00:58:35;;;;;;;12.10;7.77;;;5.90;99.90;;;;;;4945664;29;20610;-80
2021/03/11 01:01:01;;;;;;;18.00;10.97;;;6.00;99.90;;;;;;4946037;29;20247;-80
2021/03/11 01:03:26;;;;;;;16.20;9.80;;;5.90;99.90;;;;;;4945473;29;20563;-80
2021/03/11 01:05:53;;;;;;;21.77;10.80;;;6.00;99.90;;;;;;4946003;29;20251;-81
2021/03/11 01:08:19;;;;;;;15.33;9.67;;;6.00;99.90;;;;;;4945217;29;20195;-79
2021/03/11 01:10:49;;;;;;;16.67;11.53;;;6.10;99.90;;;;;;4946574;29;20404;-79
2021/03/11 01:13:15;;;;;;;19.13;10.23;;;6.20;99.90;;;;;;4943580;29;20184;-80
2021/03/11 01:15:42;;;;;;;20.63;12.07;;;6.20;99.90;;;;;;4944278;29;20459;-81
2021/03/11 01:18:10;;;;;;;18.73;12.00;;;6.10;99.90;;;;;;4943365;29;20184;-79
2021/03/11 01:20:36;;;;;;;22.37;13.50;;;6.20;99.90;;;;;;4943229;29;20406;-80
2021/03/11 01:23:04;;;;;;;19.93;11.97;;;6.20;99.90;;;;;;4924922;29;20415;-80
2021/03/11 01:25:30;;;;;;;18.10;11.70;;;6.20;99.90;;;;;;4908134;29;20483;-79
2021/03/11 01:27:55;;;;;;;18.10;10.50;;;6.10;99.90;;;;;;4924999;29;20409;-80
2021/03/11 01:30:22;;;;;;;22.20;12.77;;;6.10;99.90;;;;;;4907399;29;20169;-79
2021/03/11 01:32:48;;;;;;;17.93;11.10;;;6.00;99.90;;;;;;4923602;29;20205;-79
2021/03/11 01:35:16;;;;;;;23.30;11.97;;;6.20;99.90;;;;;;4893006;29;20429;-80
2021/03/11 01:37:42;;;;;;;20.13;12.20;;;6.10;99.90;;;;;;4923530;29;20946;-79
2021/03/11 01:40:09;;;;;;;21.53;9.50;;;6.20;99.90;;;;;;4908930;29;20181;-80
2021/03/11 01:42:36;;;;;;;18.50;10.77;;;6.10;99.90;;;;;;4908305;29;20189;-80
2021/03/11 01:45:08;;;;;;;16.73;9.30;;;6.00;99.90;;;;;;4923903;29;20472;-79
2021/03/11 01:47:34;;;;;;;15.70;10.53;;;6.00;99.90;;;;;;4908075;29;20830;-80
2021/03/11 01:50:00;;;;;;;14.67;9.70;;;6.00;99.90;;;;;;4923509;29;20401;-80
2021/03/11 01:52:26;;;;;;;22.87;11.27;;;6.00;99.90;;;;;;4924644;29;20437;-80
2021/03/11 01:54:52;;;;;;;17.33;10.70;;;6.00;99.90;;;;;;4941624;29;20439;-80
2021/03/11 01:57:18;;;;;;;16.10;10.50;;;6.00;99.90;;;;;;4943453;29;20503;-80
2021/03/11 01:59:47;;;;;;;17.87;11.63;;;6.00;99.90;;;;;;4944838;29;20396;-80
2021/03/11 02:02:13;;;;;;;22.13;10.40;;;6.00;99.90;;;;;;4945514;29;20404;-79
2021/03/11 02:04:40;;;;;;;25.30;11.80;;;5.90;99.90;;;;;;4944679;29;20392;-80
2021/03/11 02:07:06;;;;;;;14.37;11.60;;;6.10;99.90;;;;;;4943079;29;20404;-80
2021/03/11 02:09:32;;;;;;;18.10;9.47;;;6.00;99.90;;;;;;4945138;29;20407;-80
2021/03/11 02:12:06;;;;;;;18.90;11.33;;;6.00;99.90;;;;;;4945597;29;20168;-80
2021/03/11 02:15:04;;;;;;;25.27;12.43;;;6.10;99.90;;;;;;4944170;29;20408;-80
2021/03/11 02:17:35;;;;;;;21.73;12.00;;;6.20;99.90;;;;;;4945189;29;20729;-80
2021/03/11 02:20:21;;;;;;;21.70;13.80;;;6.30;99.90;;;;;;4944981;29;20396;-81
2021/03/11 02:23:04;;;;;;;16.43;11.93;;;6.30;99.90;;;;;;4946333;29;20400;-80
2021/03/11 02:25:43;;;;;;;16.50;10.63;;;6.30;99.90;;;;;;4946727;29;20371;-81
2021/03/11 02:28:19;;;;;;;18.80;9.93;;;6.20;99.90;;;;;;4945895;29;20408;-80
2021/03/11 02:30:46;;;;;;;16.10;10.10;;;6.20;99.90;;;;;;4946407;29;20395;-80
2021/03/11 02:33:13;;;;;;;17.73;11.30;;;6.00;99.90;;;;;;4930601;29;20452;-80
2021/03/11 02:35:41;;;;;;;16.40;10.43;;;6.10;99.90;;;;;;4946219;29;20447;-81
2021/03/11 02:38:10;;;;;;;20.23;11.60;;;6.20;99.90;;;;;;4929729;29;20487;-81
2021/03/11 02:40:37;;;;;;;18.27;11.73;;;6.30;99.90;;;;;;4947426;29;20420;-81
2021/03/11 02:43:09;;;;;;;13.10;9.30;;;6.20;99.90;;;;;;4945354;29;20370;-80
2021/03/11 02:45:35;;;;;;;19.10;11.17;;;6.30;99.90;;;;;;4946756;29;20404;-80
2021/03/11 02:48:04;;;;;;;16.00;9.87;;;6.20;99.90;;;;;;4947065;29;20436;-79
2021/03/11 02:50:31;;;;;;;12.27;9.70;;;6.30;99.90;;;;;;4945228;29;20220;-81
2021/03/11 02:52:58;;;;;;;15.30;10.13;;;6.30;99.90;;;;;;4945564;29;20407;-80
2021/03/11 02:55:29;;;;;;;15.70;9.63;;;6.30;99.90;;;;;;4945929;29;20404;-80
2021/03/11 02:57:56;;;;;;;17.30;11.77;;;6.20;99.90;;;;;;4953619;29;20416;-79
2021/03/11 03:00:24;;;;;;;14.70;9.13;;;6.30;99.90;;;;;;4954523;29;20400;-80
2021/03/11 03:02:52;;;;;;;13.23;10.13;;;6.20;99.90;;;;;;4946414;29;20399;-80
2021/03/11 03:05:21;;;;;;;15.70;9.90;;;6.10;99.90;;;;;;4947659;29;20378;-79
2021/03/11 03:07:49;;;;;;;15.10;10.07;;;6.20;99.90;;;;;;4947142;29;20411;-80
2021/03/11 03:10:18;;;;;;;15.03;9.70;;;6.10;99.90;;;;;;4947533;29;20415;-81
2021/03/11 03:12:47;;;;;;;14.57;9.70;;;6.20;99.90;;;;;;4951654;29;20721;-81
2021/03/11 03:15:14;;;;;;;14.60;9.90;;;6.30;99.90;;;;;;4948343;29;20404;-80
2021/03/11 03:17:41;;;;;;;15.67;9.70;;;6.30;99.90;;;;;;4949662;29;20392;-79
2021/03/11 03:20:09;;;;;;;16.73;10.23;;;6.30;99.90;;;;;;4948918;29;20403;-81
2021/03/11 03:22:37;;;;;;;11.00;8.87;;;6.30;99.90;;;;;;4946969;29;20410;-80
2021/03/11 03:25:08;;;;;;;13.03;9.43;;;6.30;99.90;;;;;;4946909;29;20936;-80
2021/03/11 03:27:34;;;;;;;12.80;9.23;;;6.30;99.90;;;;;;4930081;29;20810;-81
2021/03/11 03:30:05;;;;;;;14.70;8.80;;;6.40;99.90;;;;;;4947110;29;20572;-80
2021/03/11 03:32:31;;;;;;;14.37;9.70;;;6.30;99.90;;;;;;4945289;29;20400;-80
2021/03/11 03:34:56;;;;;;;12.43;9.50;;;6.30;99.90;;;;;;4946986;29;20399;-79
2021/03/11 03:37:22;;;;;;;17.50;9.30;;;6.40;99.90;;;;;;4945240;29;20259;-80
2021/03/11 03:39:48;;;;;;;19.43;9.80;;;6.30;99.90;;;;;;4947215;29;20175;-81
2021/03/11 03:42:14;;;;;;;18.60;9.83;;;6.40;99.90;;;;;;4943464;29;20544;-79
2021/03/11 03:44:43;;;;;;;13.00;9.17;;;6.40;99.90;;;;;;4943590;29;20171;-81
2021/03/11 03:47:11;;;;;;;14.53;9.40;;;6.50;99.90;;;;;;4945401;29;20486;-80
2021/03/11 03:49:40;;;;;;;15.27;10.53;;;6.60;99.90;;;;;;4946846;29;20407;-80
2021/03/11 03:52:07;;;;;;;18.77;9.57;;;6.60;99.90;;;;;;4946309;29;20396;-80
2021/03/11 03:54:39;;;;;;;21.77;9.80;;;6.40;99.90;;;;;;4946303;29;20431;-81
2021/03/11 03:57:12;;;;;;;13.73;10.23;;;6.30;99.90;;;;;;4947064;29;20479;-81
2021/03/11 03:59:40;;;;;;;13.80;10.03;;;6.30;99.90;;;;;;4948831;29;20420;-81
2021/03/11 04:02:06;;;;;;;22.60;10.60;;;6.30;99.90;;;;;;4950160;29;20459;-80
2021/03/11 04:04:37;;;;;;;14.90;9.97;;;6.20;99.90;;;;;;4950492;29;20415;-80
2021/03/11 04:07:07;;;;;;;14.70;9.00;;;6.30;99.90;;;;;;4950238;29;20423;-80
2021/03/11 04:09:34;;;;;;;13.13;9.80;;;6.30;99.90;;;;;;4949800;29;20400;-80
2021/03/11 04:12:01;;;;;;;16.13;9.30;;;6.20;99.90;;;;;;4948130;29;20434;-80
2021/03/11 04:14:29;;;;;;;16.20;9.83;;;6.30;99.90;;;;;;4948993;29;20695;-80
2021/03/11 04:16:56;;;;;;;16.33;10.80;;;6.20;99.90;;;;;;4949000;29;20557;-80
2021/03/11 04:19:23;;;;;;;14.07;9.40;;;6.20;99.90;;;;;;4948870;29;20400;-80
2021/03/11 04:21:52;;;;;;;27.00;10.00;;;6.20;99.90;;;;;;4948197;29;20393;-79
2021/03/11 04:24:18;;;;;;;12.60;8.73;;;6.00;99.90;;;;;;4947654;29;20411;-80
2021/03/11 04:26:45;;;;;;;21.13;10.20;;;6.00;99.90;;;;;;4949171;29;20404;-80
2021/03/11 04:29:11;;;;;;;16.90;10.03;;;5.90;99.90;;;;;;4948488;29;20408;-80
2021/03/11 04:31:38;;;;;;;18.40;10.70;;;5.90;99.90;;;;;;4947812;29;20395;-80
2021/03/11 04:34:04;;;;;;;14.63;10.73;;;6.10;99.90;;;;;;4947287;29;20392;-80
2021/03/11 04:36:32;;;;;;;14.43;9.87;;;5.90;99.90;;;;;;4947809;29;20550;-80
2021/03/11 04:38:58;;;;;;;14.70;10.47;;;5.80;99.90;;;;;;4947408;29;20470;-80
2021/03/11 04:41:24;;;;;;;10.80;9.00;;;5.80;99.90;;;;;;4949352;29;20396;-80
2021/03/11 04:43:55;;;;;;;12.63;9.27;;;5.60;99.90;;;;;;4948708;29;20443;-80
2021/03/11 04:46:22;;;;;;;9.13;7.60;;;5.70;99.90;;;;;;4961464;28;20520;-80
2021/03/11 04:48:48;;;;;;;14.70;9.23;;;5.80;99.90;;;;;;4987156;28;20482;-81
2021/03/11 04:51:16;;;;;;;21.83;10.53;;;5.70;99.90;;;;;;4987190;28;20556;-80
2021/03/11 04:53:43;;;;;;;16.37;11.03;;;5.80;99.90;;;;;;4987561;28;20402;-80
2021/03/11 04:56:10;;;;;;;15.17;11.60;;;5.70;99.90;;;;;;4986520;28;20488;-80
2021/03/11 04:58:37;;;;;;;12.43;8.93;;;5.70;99.90;;;;;;4986927;28;20458;-81
2021/03/11 05:01:10;;;;;;;13.17;9.07;;;5.70;99.90;;;;;;4987941;28;20430;-80
2021/03/11 05:03:37;;;;;;;15.43;10.50;;;5.70;99.90;;;;;;4986056;28;20403;-80
2021/03/11 05:06:03;;;;;;;10.83;9.60;;;5.70;99.90;;;;;;4987794;28;20489;-80
2021/03/11 05:08:29;;;;;;;15.90;10.20;;;5.70;99.90;;;;;;4985757;28;20426;-80
2021/03/11 05:10:55;;;;;;;14.47;10.80;;;5.70;99.90;;;;;;4986758;28;20883;-80
2021/03/11 05:13:21;;;;;;;19.93;9.60;;;5.70;99.90;;;;;;4985926;28;20232;-80
2021/03/11 05:15:46;;;;;;;16.10;9.93;;;5.70;99.90;;;;;;4986410;28;20198;-81
2021/03/11 05:18:12;;;;;;;13.33;8.20;;;5.70;99.90;;;;;;4987223;28;20218;-78
2021/03/11 05:20:38;;;;;;;18.93;10.73;;;5.70;99.90;;;;;;4993473;28;20158;-78
2021/03/11 05:23:04;;;;;;;15.47;12.33;;;5.70;99.90;;;;;;4998046;28;20178;-78
2021/03/11 05:25:29;;;;;;;14.63;9.40;;;5.70;99.90;;;;;;4996973;28;20175;-78
2021/03/11 05:27:55;;;;;;;18.80;10.97;;;5.70;99.90;;;;;;4998313;28;20171;-78
2021/03/11 05:30:24;;;;;;;14.90;9.00;;;5.70;99.90;;;;;;4997836;28;20162;-78
2021/03/11 05:32:50;;;;;;;11.30;8.73;;;5.70;99.90;;;;;;4989112;28;20190;-80
2021/03/11 05:35:16;;;;;;;13.00;9.70;;;5.80;99.90;;;;;;4953838;28;20407;-81
2021/03/11 05:37:42;;;;;;;16.00;10.37;;;5.80;99.90;;;;;;4987253;28;20486;-81
2021/03/11 05:40:10;;;;;;;14.43;9.10;;;5.80;99.90;;;;;;4985304;28;20166;-80
2021/03/11 05:42:38;;;;;;;14.30;10.00;;;5.90;99.90;;;;;;4986520;28;20163;-79
2021/03/11 05:45:07;;;;;;;20.53;9.77;;;5.90;99.90;;;;;;4986175;28;20391;-80
2021/03/11 05:47:35;;;;;;;10.93;7.80;;;6.00;99.90;;;;;;4957991;28;20387;-78
2021/03/11 05:50:01;;;;;;;16.87;9.37;;;5.80;99.90;;;;;;4996784;28;20406;-80
2021/03/11 05:52:29;;;;;;;16.17;11.80;;;6.00;99.90;;;;;;4986878;28;20384;-81
2021/03/11 05:54:56;;;;;;;12.83;8.53;;;6.00;99.90;;;;;;4986036;28;20435;-80
2021/03/11 05:57:22;;;;;;;19.20;11.10;;;6.10;99.90;;;;;;4968718;28;20469;-80
2021/03/11 05:59:48;;;;;;;15.10;9.10;;;6.10;99.90;;;;;;4977106;28;20463;-80
2021/03/11 06:02:14;;;;;;;12.80;9.10;;;6.20;99.90;;;;;;4966934;28;20410;-81
2021/03/11 06:04:41;;;;;;;13.73;8.07;;;6.30;99.90;;;;;;4964735;29;20415;-80
2021/03/11 06:07:07;;;;;;;11.00;8.67;;;6.30;99.90;;;;;;4966296;28;20494;-81
2021/03/11 06:09:35;;;;;;;12.57;9.50;;;6.40;99.90;;;;;;4966021;28;20402;-80
2021/03/11 06:12:01;;;;;;;16.40;9.43;;;6.40;99.90;;;;;;4965735;29;20399;-80
2021/03/11 06:14:37;;;;;;;15.80;8.80;;;6.40;99.90;;;;;;4967762;28;20397;-80
2021/03/11 06:17:07;;;;;;;16.07;9.23;;;6.30;99.90;;;;;;4966158;29;20446;-81
2021/03/11 06:19:34;;;;;;;17.00;9.70;;;6.50;99.90;;;;;;4965505;29;20414;-80
2021/03/11 06:22:01;;;;;;;19.00;10.40;;;6.50;99.90;;;;;;4965420;28;20740;-80
2021/03/11 06:24:27;;;;;;;16.10;9.57;;;6.50;99.90;;;;;;4963774;29;20395;-80
2021/03/11 06:26:53;;;;;;;14.20;8.67;;;6.50;99.90;;;;;;4964817;28;20923;-80
2021/03/11 06:29:33;;;;;;;11.63;7.50;;;6.40;99.90;;;;;;4966343;28;20377;-80
2021/03/11 06:31:59;;;;;;;21.20;10.50;;;6.40;99.90;;;;;;4967243;28;20170;-78
2021/03/11 06:34:27;;;;;;;20.13;9.53;;;6.40;99.90;;;;;;4965723;29;20399;-80
2021/03/11 06:36:53;;;;;;;13.23;10.10;;;6.50;99.90;;;;;;4964014;28;20904;-81
2021/03/11 06:39:24;;;;;;;12.10;9.00;;;6.40;99.90;;;;;;4963361;28;20384;-81
2021/03/11 06:41:50;;;;;;;18.43;9.27;;;6.40;99.90;;;;;;4964058;28;20160;-81
2021/03/11 06:44:16;;;;;;;16.30;9.63;;;6.30;99.90;;;;;;4962599;29;20409;-81
2021/03/11 06:46:59;;;;;;;13.50;9.60;;;6.30;99.90;;;;;;4949389;28;20423;-80
2021/03/11 06:49:25;;;;;;;17.77;10.97;;;6.40;99.90;;;;;;4981147;28;20855;-81
2021/03/11 06:52:13;;;;;;;14.20;9.30;;;6.40;99.90;;;;;;4967691;28;20441;-80
2021/03/11 06:55:07;;;;;;;16.80;10.53;;;6.40;99.90;;;;;;4965874;28;20431;-80
2021/03/11 06:57:41;;;;;;;11.50;8.33;;;6.40;99.90;;;;;;4967871;28;20446;-80
2021/03/11 07:00:18;;;;;;;11.23;8.70;;;6.40;99.90;;;;;;4973803;28;20414;-80
2021/03/11 07:02:53;;;;;;;7.67;5.77;;;6.50;99.90;;;;;;4962006;28;20440;-80
2021/03/11 07:05:21;;;;;;;14.30;10.67;;;6.50;99.90;;;;;;4944040;29;20434;-80
2021/03/11 07:08:03;;;;;;;15.15;9.70;;;6.60;99.90;;;;;;4953939;28;20535;-80
2021/03/11 07:10:30;;;;;;;23.20;12.77;;;6.60;99.90;;;;;;4963123;28;20183;-80
2021/03/11 07:12:59;;;;;;;14.33;10.00;;;6.80;99.90;;;;;;4964628;28;20386;-81
2021/03/11 07:15:27;;;;;;;15.27;9.10;;;6.80;99.90;;;;;;4946659;29;20414;-80
2021/03/11 07:17:54;;;;;;;13.77;10.03;;;6.80;99.90;;;;;;4963466;28;20430;-80
2021/03/11 07:20:22;;;;;;;13.33;8.43;;;6.80;99.90;;;;;;4944924;29;20449;-80
2021/03/11 07:23:15;;;;;;;13.03;9.13;;;6.80;99.90;;;;;;4964656;28;20435;-80
2021/03/11 07:25:49;;;;;;;11.83;8.30;;;6.80;99.90;;;;;;4946704;29;20431;-80
2021/03/11 07:28:26;;;;;;;16.80;8.77;;;6.70;99.90;;;;;;4960999;29;20454;-80
2021/03/11 07:30:55;;;;;;;10.47;7.80;;;6.80;99.90;;;;;;4965036;28;20418;-80
2021/03/11 07:33:24;;;;;;;14.93;9.50;;;6.80;99.90;;;;;;4964504;28;20449;-80
2021/03/11 07:35:54;;;;;;;18.83;8.57;;;6.80;99.90;;;;;;4967430;28;20790;-80
2021/03/11 07:38:25;;;;;;;13.67;9.20;;;6.90;99.90;;;;;;4959858;28;20537;-80
2021/03/11 07:40:53;;;;;;;10.00;8.37;;;6.90;99.90;;;;;;4957062;28;20514;-80
2021/03/11 07:43:21;;;;;;;8.73;7.90;;;7.00;99.90;;;;;;4959366;28;20426;-80
2021/03/11 07:45:47;;;;;;;15.33;8.50;;;7.10;99.90;;;;;;4955628;28;20754;-80
2021/03/11 07:48:14;;;;;;;15.60;9.10;;;7.20;99.90;;;;;;4958070;28;20434;-80
2021/03/11 07:50:42;;;;;;;14.33;8.30;;;7.30;99.90;;;;;;4958638;28;20458;-81
2021/03/11 07:53:08;;;;;;;11.43;7.80;;;7.30;99.90;;;;;;4959260;29;20486;-80
2021/03/11 07:55:34;;;;;;;15.43;9.57;;;7.40;99.90;;;;;;4958653;28;20474;-80
2021/03/11 07:58:09;;;;;;;11.50;8.43;;;7.40;99.90;;;;;;4957078;28;20179;-80
2021/03/11 08:00:35;;;;;;;15.47;9.63;;;7.40;99.90;;;;;;4958731;28;20430;-80
2021/03/11 08:03:09;;;;;;;12.43;8.23;;;7.40;99.90;;;;;;4955251;28;20435;-80
2021/03/11 08:05:35;;;;;;;13.03;8.93;;;7.40;99.90;;;;;;4962568;28;20430;-79
2021/03/11 08:08:29;;;;;;;13.97;7.73;;;7.50;99.90;;;;;;4958596;28;20814;-80
2021/03/11 08:10:58;;;;;;;11.13;8.77;;;7.50;99.90;;;;;;4947731;29;20427;-81
2021/03/11 08:13:35;;;;;;;14.03;7.03;;;7.40;99.90;;;;;;4960171;28;20447;-79
2021/03/11 08:16:21;;;;;;;14.20;9.83;;;7.40;99.90;;;;;;4956594;28;20462;-81
2021/03/11 08:18:49;;;;;;;17.30;8.10;;;7.50;99.90;;;;;;4959765;28;20435;-81
2021/03/11 08:21:47;;;;;;;12.90;9.23;;;7.50;99.90;;;;;;4956361;28;20541;-81
2021/03/11 08:24:49;;;;;;;12.47;7.67;;;7.50;99.90;;;;;;4954606;28;20458;-80
2021/03/11 08:27:40;;;;;;;12.07;7.97;;;7.60;99.90;;;;;;4954996;28;20432;-80
2021/03/11 08:30:27;;;;;;;9.57;8.40;;;7.70;99.90;;;;;;4956399;28;20439;-81
2021/03/11 08:32:53;;;;;;;12.97;9.30;;;7.60;99.90;;;;;;4957550;29;20435;-81
2021/03/11 08:35:41;;;;;;;14.47;9.20;;;7.70;99.90;;;;;;4956175;28;20432;-79
2021/03/11 08:38:40;;;;;;;14.13;10.50;;;7.60;99.90;;;;;;4968191;29;20242;-79
2021/03/11 08:41:08;;;;;;;11.63;8.83;;;7.60;99.90;;;;;;4952245;28;20444;-80
2021/03/11 08:43:50;;;;;;;14.00;10.20;;;7.50;99.90;;;;;;4955880;28;20448;-81
2021/03/11 08:46:19;;;;;;;15.00;10.00;;;7.50;99.90;;;;;;4960647;28;20446;-80
2021/03/11 08:48:57;;;;;;;17.27;8.50;;;7.60;99.90;;;;;;4954606;28;20440;-80
2021/03/11 08:51:37;;;;;;;15.80;10.17;;;7.60;99.90;;;;;;4956522;28;20421;-81
2021/03/11 08:54:06;;;;;;;12.70;8.57;;;7.60;99.90;;;;;;4960027;29;20426;-81
2021/03/11 08:56:40;;;;;;;15.70;9.27;;;7.70;99.90;;;;;;4960078;28;20466;-80
2021/03/11 08:59:19;;;;;;;16.77;9.17;;;7.80;99.90;;;;;;4959167;28;20439;-79
2021/03/11 09:01:53;;;;;;;11.20;7.60;;;7.80;99.90;;;;;;4959603;28;20441;-79
2021/03/11 09:04:42;;;;;;;9.10;7.50;;;7.80;99.90;;;;;;4960007;28;20550;-80
2021/03/11 09:07:10;;;;;;;9.90;7.00;;;7.80;99.90;;;;;;4944819;29;20510;-80
2021/03/11 09:09:46;;;;;;;12.20;8.53;;;7.80;99.90;;;;;;4958364;28;20439;-78
2021/03/11 09:12:16;;;;;;;15.03;7.63;;;7.90;99.90;;;;;;4962847;28;20434;-80
2021/03/11 09:14:44;;;;;;;8.67;7.73;;;8.00;99.90;;;;;;4955000;29;20428;-80
2021/03/11 09:17:13;;;;;;;10.97;7.77;;;8.00;99.90;;;;;;4960771;28;20462;-80
2021/03/11 09:19:42;;;;;;;11.70;7.63;;;8.00;99.90;;;;;;4960370;28;20442;-80
2021/03/11 09:22:28;;;;;;;9.30;8.40;;;8.10;99.90;;;;;;4964030;28;20427;-79
2021/03/11 09:25:11;;;;;;;9.63;7.47;;;8.10;99.90;;;;;;4960467;28;20521;-80
2021/03/11 09:27:58;;;;;;;11.17;7.20;;;8.20;99.90;;;;;;4960884;28;20911;-81
2021/03/11 09:30:32;;;;;;;12.33;8.00;;;8.20;99.90;;;;;;4951775;28;20499;-79
2021/03/11 09:33:08;;;;;;;15.60;8.47;;;8.20;99.90;;;;;;4960740;28;20442;-80
2021/03/11 09:35:34;;;;;;;13.60;8.43;;;8.30;99.90;;;;;;4913925;29;20439;-80
2021/03/11 09:38:02;;;;;;;9.50;5.67;;;8.30;99.90;;;;;;4958762;28;20448;-80
2021/03/11 09:40:38;;;;;;;16.03;8.87;;;8.30;99.90;;;;;;4930140;28;20532;-80
2021/03/11 09:43:20;;;;;;;7.50;6.20;;;8.40;99.90;;;;;;4947588;28;20457;-78
2021/03/11 09:45:58;;;;;;;7.50;6.73;;;8.40;99.90;;;;;;4942645;28;20437;-81
2021/03/11 09:48:41;;;;;;;10.80;5.60;;;8.50;99.90;;;;;;4956839;28;20405;-80
2021/03/11 09:51:12;;;;;;;9.50;5.77;;;8.60;99.90;;;;;;4954395;28;21056;-79
2021/03/11 09:53:44;;;;;;;8.20;6.30;;;8.70;99.90;;;;;;4940720;28;20890;-79
2021/03/11 09:56:20;;;;;;;7.97;5.53;;;8.70;99.90;;;;;;4931929;29;20475;-80
2021/03/11 09:58:50;;;;;;;8.77;7.87;;;8.70;99.90;;;;;;4957212;28;20450;-80
2021/03/11 10:01:29;;;;;;;10.57;5.37;;;8.80;99.90;;;;;;4955976;28;20556;-80
2021/03/11 10:03:55;;;;;;;8.20;5.53;;;8.90;99.90;;;;;;4956586;28;20435;-81
2021/03/11 10:06:23;;;;;;;10.43;5.70;;;8.90;99.90;;;;;;4959127;28;20451;-80
2021/03/11 10:08:54;;;;;;;12.30;5.47;;;9.00;99.90;;;;;;4957460;28;20443;-79
2021/03/11 10:11:23;;;;;;;9.37;5.70;;;9.20;99.90;;;;;;4956017;28;20472;-79
2021/03/11 10:13:53;;;;;;;10.97;6.80;;;9.20;99.90;;;;;;4954694;28;20446;-79
2021/03/11 10:16:40;;;;;;;13.90;6.30;;;9.30;99.90;;;;;;4956413;28;20932;-80
2021/03/11 10:19:12;;;;;;;12.23;7.70;;;9.30;99.90;;;;;;4955516;28;20439;-81
2021/03/11 10:21:58;;;;;;;7.00;6.27;;;9.40;99.90;;;;;;4956204;28;20446;-79
2021/03/11 10:24:42;;;;;;;8.23;5.53;;;9.50;99.90;;;;;;4956819;28;20793;-80
2021/03/11 10:27:34;;;;;;;4.90;4.50;;;9.60;99.90;;;;;;4959147;28;20908;-82
2021/03/11 10:30:20;;;;;;;5.33;4.10;;;9.70;99.90;;;;;;4955305;28;20449;-82
2021/03/11 10:32:56;;;;;;;6.37;3.77;;;9.80;99.90;;;;;;4958455;28;20430;-82
2021/03/11 10:35:28;;;;;;;3.63;3.20;;;10.10;99.90;;;;;;4937926;29;20442;-83
2021/03/11 10:37:55;;;;;;;4.73;3.20;;;10.20;99.90;;;;;;4955191;28;20474;-80
2021/03/11 10:40:24;;;;;;;3.90;3.03;;;10.20;99.90;;;;;;4951771;28;20462;-80
2021/03/11 10:42:58;;;;;;;2.97;2.40;;;10.30;99.90;;;;;;4950268;28;20473;-80
2021/03/11 10:45:27;;;;;;;4.70;2.60;;;10.20;99.90;;;;;;4950852;28;20443;-81
2021/03/11 10:48:04;;;;;;;9.10;3.50;;;10.30;99.90;;;;;;4912864;29;20574;-80
2021/03/11 10:50:31;;;;;;;4.93;3.37;;;10.30;99.90;;;;;;4935261;29;20504;-81
2021/03/11 10:52:57;;;;;;;6.23;2.80;;;10.40;99.90;;;;;;4940749;28;20435;-79
2021/03/11 10:55:30;;;;;;;4.37;2.50;;;10.40;99.90;;;;;;4947732;28;20437;-79
2021/03/11 10:57:56;;;;;;;2.80;2.27;;;10.40;99.90;;;;;;4936326;29;20581;-79
2021/03/11 11:00:24;;;;;;;6.17;2.30;;;10.50;99.90;;;;;;4917842;28;20446;-79
2021/03/11 11:02:55;;;;;;;2.90;2.57;;;10.60;99.90;;;;;;4939418;28;20443;-80
2021/03/11 11:05:21;;;;;;;3.80;3.50;;;10.70;99.90;;;;;;4950306;28;20442;-81
2021/03/11 11:07:48;;;;;;;2.07;1.87;;;10.60;99.90;;;;;;4921220;28;20931;-81
2021/03/11 11:10:20;;;;;;;2.87;2.53;;;10.60;99.90;;;;;;4952497;28;20443;-80
2021/03/11 11:12:48;;;;;;;3.20;2.00;;;10.60;99.90;;;;;;4939239;29;20422;-79
2021/03/11 11:15:17;;;;;;;1.97;1.87;;;10.60;99.90;;;;;;4956980;28;20442;-79
2021/03/11 11:17:43;;;;;;;2.23;2.00;;;10.50;99.90;;;;;;4943518;29;20470;-82
2021/03/11 11:20:11;;;;;;;2.97;1.60;;;10.50;99.90;;;;;;4960210;28;20446;-81
2021/03/11 11:22:37;;;;;;;5.27;1.97;;;10.40;99.90;;;;;;4959219;28;20438;-82
2021/03/11 11:25:04;;;;;;;1.73;1.63;;;10.40;99.90;;;;;;4961728;28;20530;-82
2021/03/11 11:27:34;;;;;;;2.33;1.73;;;10.40;99.90;;;;;;4964397;28;20442;-81
2021/03/11 11:30:20;;;;;;;4.07;2.87;;;10.50;99.90;;;;;;4965460;28;20489;-83
2021/03/11 11:32:46;;;;;;;2.50;2.30;;;10.50;99.90;;;;;;4938796;29;20442;-82
2021/03/11 11:35:14;;;;;;;4.30;2.13;;;10.50;99.90;;;;;;4912469;29;20445;-79
2021/03/11 11:38:01;;;;;;;2.73;2.50;;;10.40;99.90;;;;;;4960198;28;20965;-80
2021/03/11 11:40:31;;;;;;;2.43;2.00;;;10.40;99.90;;;;;;4920523;29;20508;-80
2021/03/11 11:42:58;;;;;;;3.23;2.73;;;10.50;99.90;;;;;;4904057;28;21015;-81
2021/03/11 11:45:24;;;;;;;3.63;2.77;;;10.50;99.90;;;;;;4955044;28;20471;-80
2021/03/11 11:47:50;;;;;;;3.13;2.90;;;10.50;99.90;;;;;;4951532;28;20466;-81
2021/03/11 11:50:16;;;;;;;3.13;2.73;;;10.60;99.90;;;;;;4936918;28;20219;-81
2021/03/11 11:52:42;;;;;;;2.90;2.23;;;10.60;99.90;;;;;;4949658;28;20445;-81
2021/03/11 11:55:10;;;;;;;5.50;2.50;;;10.60;99.90;;;;;;4938548;28;20446;-83
2021/03/11 11:57:38;;;;;;;2.40;2.20;;;10.60;99.90;;;;;;4940428;29;20605;-82
2021/03/11 12:00:05;;;;;;;3.27;2.70;;;10.60;99.90;;;;;;4953778;28;20438;-82
2021/03/11 12:02:31;;;;;;;5.20;2.77;;;10.80;99.90;;;;;;4953443;28;20451;-83
2021/03/11 12:04:57;;;;;;;5.00;3.03;;;10.70;99.90;;;;;;4957366;28;20461;-82
2021/03/11 12:07:23;;;;;;;2.70;2.47;;;10.80;99.90;;;;;;4940689;28;20194;-82
2021/03/11 12:09:49;;;;;;;2.60;2.40;;;10.90;99.90;;;;;;4954535;28;20539;-82
2021/03/11 12:12:15;;;;;;;2.63;2.43;;;10.90;99.90;;;;;;4951938;28;20251;-82
2021/03/11 12:14:42;;;;;;;2.87;2.53;;;10.90;99.90;;;;;;4951284;28;20194;-81
2021/03/11 12:17:10;;;;;;;2.20;2.00;;;11.00;99.90;;;;;;4954528;28;20471;-80
2021/03/11 12:19:36;;;;;;;2.90;2.60;;;11.00;99.90;;;;;;4954268;28;20464;-82
2021/03/11 12:22:02;;;;;;;2.40;2.10;;;11.00;99.90;;;;;;4925123;29;20443;-82
2021/03/11 12:24:28;;;;;;;2.73;2.37;;;11.00;99.90;;;;;;4957218;28;20570;-79
2021/03/11 12:26:56;;;;;;;2.17;1.97;;;11.10;99.90;;;;;;4935362;29;20510;-83
2021/03/11 12:29:23;;;;;;;2.23;2.07;;;11.20;99.90;;;;;;4955995;28;20314;-82
2021/03/11 12:31:49;;;;;;;2.27;1.80;;;11.30;99.90;;;;;;4957310;28;20454;-81
2021/03/11 12:34:15;;;;;;;2.67;2.10;;;11.20;99.90;;;;;;4953450;28;20447;-82
2021/03/11 12:36:42;;;;;;;1.93;1.83;;;11.20;99.90;;;;;;4954536;28;20477;-83
2021/03/11 12:39:08;;;;;;;5.60;1.93;;;11.30;99.90;;;;;;4937021;29;20883;-83
2021/03/11 12:41:34;;;;;;;1.53;1.43;;;11.30;99.90;;;;;;4944091;28;20782;-82
2021/03/11 12:44:01;;;;;;;1.73;1.63;;;11.40;99.90;;;;;;4956483;28;20454;-82
2021/03/11 12:46:27;;;;;;;1.60;1.47;;;11.30;99.90;;;;;;4955346;28;20493;-79
2021/03/11 12:48:53;;;;;;;1.67;1.57;;;11.40;99.90;;;;;;4923058;28;21042;-81
2021/03/11 12:51:20;;;;;;;2.13;1.70;;;11.50;99.90;;;;;;4953250;28;20311;-82
2021/03/11 12:53:47;;;;;;;1.50;1.40;;;11.50;99.90;;;;;;4958201;28;20191;-83
2021/03/11 12:56:14;;;;;;;1.63;1.30;;;11.70;99.90;;;;;;4955384;28;20466;-84
2021/03/11 12:58:40;;;;;;;1.50;1.40;;;11.70;99.90;;;;;;4954972;28;20450;-82